Time;durP1;ratioP1;P1;durP2;ratioP2;P2;SDS_P1;SDS_P2;PMS_P1;PMS_P2;Temp;Humidity;BMP_temperature;BMP_pressure;BME280_temperature;BME280_humidity;BME280_pressure;Samples;Min_cycle;Max_cycle;Signal;HPM_P1;HPM_P2
2024/03/31 00:01:56;;;;;;;15.10;7.17;;;;;;;15.08;69.34;99203.75;4844709;29;20451;-66
2024/03/31 00:04:24;;;;;;;46.63;8.47;;;;;;;14.95;69.64;99196.94;4860006;29;20419;-65
2024/03/31 00:06:51;;;;;;;15.43;8.27;;;;;;;14.93;70.26;99199.09;4854327;29;20444;-64
2024/03/31 00:09:19;;;;;;;37.57;7.80;;;;;;;14.97;70.17;99197.47;4859523;29;20422;-64
2024/03/31 00:11:46;;;;;;;22.17;8.70;;;;;;;14.88;69.93;99196.38;4856414;29;20433;-65
2024/03/31 00:14:15;;;;;;;22.50;7.20;;;;;;;15.01;69.05;99201.28;4839411;29;20930;-64
2024/03/31 00:16:42;;;;;;;12.40;7.20;;;;;;;14.91;69.22;99201.25;4858249;29;20520;-65
2024/03/31 00:19:10;;;;;;;20.63;8.57;;;;;;;14.82;69.62;99193.91;4857207;29;20912;-66
2024/03/31 00:21:37;;;;;;;17.43;6.87;;;;;;;14.96;69.01;99186.88;4838925;29;20458;-65
2024/03/31 00:24:06;;;;;;;19.20;9.30;;;;;;;14.86;68.97;99193.13;4858156;29;20456;-64
2024/03/31 00:26:33;;;;;;;19.53;8.13;;;;;;;14.95;69.95;99196.94;4855296;29;20998;-65
2024/03/31 00:29:02;;;;;;;46.70;10.67;;;;;;;14.86;69.66;99187.69;4860885;29;20438;-65
2024/03/31 00:31:30;;;;;;;17.13;7.40;;;;;;;14.83;69.62;99182.75;4841029;29;20468;-65
2024/03/31 00:33:58;;;;;;;22.90;8.70;;;;;;;14.84;69.81;99198.00;4851801;29;20430;-65
2024/03/31 00:36:25;;;;;;;20.33;8.03;;;;;;;14.87;69.41;99199.34;4840001;29;20445;-66
2024/03/31 00:38:53;;;;;;;25.43;9.23;;;;;;;14.89;69.13;99189.03;4841394;29;20463;-62
2024/03/31 00:41:20;;;;;;;8.87;6.40;;;;;;;14.78;69.30;99186.28;4857549;29;20476;-63
2024/03/31 00:43:48;;;;;;;34.57;12.00;;;;;;;14.72;69.37;99179.19;4842817;29;20415;-65
2024/03/31 00:46:15;;;;;;;11.27;8.40;;;;;;;14.79;69.00;99177.03;4857264;29;20515;-65
2024/03/31 00:48:45;;;;;;;29.33;10.10;;;;;;;14.78;69.29;99180.84;4840094;29;20805;-65
2024/03/31 00:51:11;;;;;;;17.40;7.40;;;;;;;14.75;69.40;99177.84;4837712;29;20865;-60
2024/03/31 00:53:39;;;;;;;27.20;8.63;;;;;;;14.74;69.71;99174.31;4843905;29;20408;-65
2024/03/31 00:56:07;;;;;;;17.40;7.60;;;;;;;14.62;70.58;99170.22;4859513;29;20515;-64
2024/03/31 00:58:35;;;;;;;12.83;7.93;;;;;;;14.63;71.25;99171.84;4837666;29;20472;-65
2024/03/31 01:01:02;;;;;;;20.33;9.50;;;;;;;14.53;70.49;99160.94;4840162;29;20824;-66
2024/03/31 01:03:31;;;;;;;21.23;9.00;;;;;;;14.50;70.80;99161.47;4845449;29;20459;-65
2024/03/31 01:06:05;;;;;;;28.03;8.80;;;;;;;14.51;70.70;99168.56;4849193;29;20418;-64
2024/03/31 01:08:33;;;;;;;18.67;7.83;;;;;;;14.52;71.52;99171.03;4849681;29;20478;-62
2024/03/31 01:11:00;;;;;;;29.13;9.80;;;;;;;14.49;70.85;99159.84;4855864;29;20843;-63
2024/03/31 01:13:34;;;;;;;10.43;6.20;;;;;;;14.45;71.14;99159.56;4843938;29;20418;-64
2024/03/31 01:16:06;;;;;;;14.83;7.10;;;;;;;14.41;71.56;99154.94;4841612;29;20422;-64
2024/03/31 01:18:34;;;;;;;35.87;9.27;;;;;;;14.57;71.33;99164.78;4858550;29;20426;-65
2024/03/31 01:21:06;;;;;;;18.93;7.20;;;;;;;14.63;70.93;99160.94;4861930;29;20484;-65
2024/03/31 01:23:39;;;;;;;25.03;9.17;;;;;;;14.47;72.41;99153.88;4841831;29;20431;-63
2024/03/31 01:26:07;;;;;;;27.30;11.60;;;;;;;14.41;73.40;99157.66;4839036;29;20453;-64
2024/03/31 01:28:35;;;;;;;11.27;6.07;;;;;;;14.37;72.72;99164.72;4844478;29;20500;-65
2024/03/31 01:31:03;;;;;;;23.57;8.80;;;;;;;14.24;73.93;99158.66;4843433;29;20459;-64
2024/03/31 01:33:31;;;;;;;28.00;8.87;;;;;;;14.15;74.73;99154.81;4830282;29;20419;-63
2024/03/31 01:36:00;;;;;;;42.43;9.80;;;;;;;14.08;74.38;99148.84;4840497;29;20446;-65
2024/03/31 01:38:27;;;;;;;10.53;7.17;;;;;;;14.11;73.49;99142.03;4859683;29;20531;-63
2024/03/31 01:40:55;;;;;;;18.40;5.90;;;;;;;14.09;74.17;99144.19;4846520;29;20458;-63
2024/03/31 01:43:24;;;;;;;16.50;6.63;;;;;;;14.03;74.08;99140.66;4858770;29;20415;-62
2024/03/31 01:45:51;;;;;;;29.00;9.10;;;;;;;13.96;74.75;99144.69;4851567;29;20511;-62
2024/03/31 01:48:19;;;;;;;16.20;7.00;;;;;;;13.96;74.57;99150.94;4860905;29;20440;-64
2024/03/31 01:50:46;;;;;;;32.87;7.70;;;;;;;13.99;74.70;99147.69;4837906;29;20428;-63
2024/03/31 01:53:14;;;;;;;23.20;7.17;;;;;;;13.94;75.15;99151.22;4843156;29;20505;-65
2024/03/31 01:55:41;;;;;;;23.50;8.20;;;;;;;13.88;76.89;99146.03;4839672;29;20415;-64
2024/03/31 01:58:09;;;;;;;20.07;8.00;;;;;;;13.91;77.80;99148.22;4842292;29;20522;-60
2024/03/31 02:00:37;;;;;;;35.40;9.57;;;;;;;13.88;77.42;99146.03;4840239;29;20566;-61
2024/03/31 02:03:05;;;;;;;25.10;9.90;;;;;;;13.84;76.74;99144.94;4862800;29;20813;-63
2024/03/31 02:05:32;;;;;;;25.33;8.87;;;;;;;13.75;76.94;99149.22;4855613;29;20538;-64
2024/03/31 02:08:00;;;;;;;27.23;8.87;;;;;;;13.64;77.24;99140.22;4859925;29;20502;-63
2024/03/31 02:10:27;;;;;;;20.90;8.33;;;;;;;13.59;77.64;99134.75;4836924;29;20431;-64
2024/03/31 02:12:55;;;;;;;16.40;6.70;;;;;;;13.62;78.04;99130.69;4857234;29;20496;-63
2024/03/31 02:15:22;;;;;;;34.40;10.70;;;;;;;13.59;78.17;99133.94;4865781;29;20504;-64
2024/03/31 02:17:51;;;;;;;48.70;9.97;;;;;;;13.54;78.52;99131.19;4844493;29;20981;-65
2024/03/31 02:20:18;;;;;;;14.20;7.17;;;;;;;13.46;79.66;99130.59;4866232;29;20511;-64
2024/03/31 02:22:46;;;;;;;31.70;9.13;;;;;;;13.48;78.69;99138.50;4841616;29;20472;-65
2024/03/31 02:25:12;;;;;;;12.73;8.07;;;;;;;13.53;79.33;99145.84;4841921;29;20445;-65
2024/03/31 02:27:40;;;;;;;18.40;7.70;;;;;;;13.44;80.27;99149.09;4854006;29;20437;-64
2024/03/31 02:30:07;;;;;;;20.77;10.90;;;;;;;13.71;79.62;99142.69;4827967;29;21041;-64
2024/03/31 02:32:35;;;;;;;15.73;6.43;;;;;;;13.68;78.99;99154.91;4839558;29;20834;-67
2024/03/31 02:35:06;;;;;;;19.40;9.17;;;;;;;13.39;80.67;99151.78;4829416;29;20985;-64
2024/03/31 02:37:34;;;;;;;33.50;8.33;;;;;;;13.45;82.24;99145.28;4843033;29;20821;-66
2024/03/31 02:40:01;;;;;;;12.93;8.47;;;;;;;13.37;83.04;99145.78;4841032;29;21052;-64
2024/03/31 02:42:28;;;;;;;24.83;7.93;;;;;;;13.22;83.71;99151.09;4863553;29;20797;-65
2024/03/31 02:44:55;;;;;;;17.93;6.67;;;;;;;13.22;84.86;99147.56;4849743;29;20463;-64
2024/03/31 02:47:24;;;;;;;20.20;9.60;;;;;;;13.08;84.92;99139.03;4842475;29;20442;-65
2024/03/31 02:49:51;;;;;;;24.73;9.20;;;;;;;13.10;84.36;99136.06;4823966;29;20563;-65
2024/03/31 02:52:20;;;;;;;15.23;7.50;;;;;;;12.97;84.83;99137.34;4830119;29;20498;-64
2024/03/31 02:54:47;;;;;;;22.77;12.50;;;;;;;12.91;84.71;99139.19;4838621;29;20422;-64
2024/03/31 02:57:15;;;;;;;13.73;8.00;;;;;;;12.87;84.39;99135.34;4845261;29;20456;-65
2024/03/31 02:59:44;;;;;;;16.50;5.90;;;;;;;12.81;84.69;99130.13;4844838;29;20478;-61
2024/03/31 03:02:13;;;;;;;36.70;7.90;;;;;;;12.83;84.71;99120.63;4865641;29;20607;-64
2024/03/31 03:04:40;;;;;;;24.17;9.10;;;;;;;12.84;84.93;99129.59;4831248;29;20425;-63
2024/03/31 03:07:08;;;;;;;18.97;7.90;;;;;;;12.84;86.02;99137.75;4857940;29;20952;-60
2024/03/31 03:09:36;;;;;;;14.90;6.50;;;;;;;12.92;86.27;99140.81;4860646;29;20546;-64
2024/03/31 03:12:04;;;;;;;23.20;9.17;;;;;;;12.95;85.50;99140.31;4844015;29;20423;-64
2024/03/31 03:14:31;;;;;;;25.03;12.73;;;;;;;12.89;86.09;99141.31;4861187;29;20439;-65
2024/03/31 03:16:59;;;;;;;11.97;9.47;;;;;;;12.88;86.38;99133.44;4867088;29;20434;-66
2024/03/31 03:19:25;;;;;;;20.57;9.57;;;;;;;12.84;86.58;99140.47;4848281;29;20490;-62
2024/03/31 03:21:53;;;;;;;33.97;8.50;;;;;;;12.69;87.79;99145.75;4863655;29;20578;-64
2024/03/31 03:24:21;;;;;;;18.83;9.80;;;;;;;12.81;88.63;99141.00;4841870;29;20467;-64
2024/03/31 03:26:50;;;;;;;17.07;7.87;;;;;;;12.72;88.37;99146.09;4845341;29;20834;-63
2024/03/31 03:29:19;;;;;;;24.67;7.13;;;;;;;12.54;88.89;99155.41;4849694;29;20459;-65
2024/03/31 03:31:46;;;;;;;36.50;7.30;;;;;;;12.58;89.23;99158.44;4839829;29;20433;-65
2024/03/31 03:34:14;;;;;;;16.63;8.20;;;;;;;12.45;89.20;99158.84;4834069;29;20513;-62
2024/03/31 03:36:42;;;;;;;17.77;8.17;;;;;;;12.58;88.98;99163.88;4843266;29;20481;-64
2024/03/31 03:39:10;;;;;;;21.03;9.23;;;;;;;12.92;86.33;99167.16;4840952;29;21010;-65
2024/03/31 03:41:37;;;;;;;20.27;9.70;;;;;;;12.81;86.05;99176.28;4837294;29;20471;-65
2024/03/31 03:44:06;;;;;;;29.03;7.97;;;;;;;12.81;86.44;99176.28;4859912;29;20546;-65
2024/03/31 03:46:34;;;;;;;42.07;9.20;;;;;;;12.94;85.48;99173.13;4832591;29;20444;-60
2024/03/31 03:49:00;;;;;;;25.77;7.60;;;;;;;12.91;84.94;99171.75;4857528;29;20457;-61
2024/03/31 03:51:29;;;;;;;15.20;7.20;;;;;;;12.72;85.61;99166.97;4849639;29;20460;-65
2024/03/31 03:53:55;;;;;;;20.43;6.30;;;;;;;12.65;86.49;99161.75;4867682;29;20816;-66
2024/03/31 03:56:23;;;;;;;24.20;6.73;;;;;;;12.76;86.97;99165.38;4844521;29;20856;-64
2024/03/31 03:58:50;;;;;;;11.97;6.00;;;;;;;12.59;87.17;99169.00;4862622;29;20524;-63
2024/03/31 04:01:20;;;;;;;29.00;8.00;;;;;;;12.62;87.53;99170.41;4856478;29;20924;-65
2024/03/31 04:03:47;;;;;;;29.37;6.97;;;;;;;12.67;87.00;99172.34;4853664;29;20449;-65
2024/03/31 04:06:15;;;;;;;27.50;8.57;;;;;;;12.91;84.90;99165.50;4839782;29;20435;-65
2024/03/31 04:08:41;;;;;;;39.17;8.43;;;;;;;12.89;84.35;99163.03;4849966;29;21018;-63
2024/03/31 04:11:10;;;;;;;16.03;6.63;;;;;;;13.04;83.44;99159.63;4840980;29;20464;-64
2024/03/31 04:13:37;;;;;;;10.80;7.80;;;;;;;13.07;83.47;99161.81;4847923;29;20976;-66
2024/03/31 04:16:05;;;;;;;24.07;7.53;;;;;;;12.84;84.10;99159.47;4841332;29;20457;-65
2024/03/31 04:18:41;;;;;;;16.00;5.97;;;;;;;12.85;85.42;99163.81;4845104;29;20422;-63
2024/03/31 04:21:09;;;;;;;25.87;8.77;;;;;;;12.80;85.34;99164.59;4848932;29;20487;-63
2024/03/31 04:23:37;;;;;;;13.77;5.90;;;;;;;12.82;84.35;99167.06;4859396;29;20474;-65
2024/03/31 04:26:05;;;;;;;16.57;7.30;;;;;;;12.73;85.52;99174.03;4842331;29;20531;-64
2024/03/31 04:28:32;;;;;;;20.47;7.57;;;;;;;12.71;85.37;99165.34;4856309;29;20809;-65
2024/03/31 04:31:03;;;;;;;23.13;8.40;;;;;;;12.56;86.40;99169.53;4849337;29;20456;-64
2024/03/31 04:33:31;;;;;;;16.37;8.73;;;;;;;12.42;88.07;99170.22;4839057;29;20468;-64
2024/03/31 04:36:00;;;;;;;29.70;9.67;;;;;;;12.31;89.71;99166.56;4851952;29;20448;-64
2024/03/31 04:38:28;;;;;;;16.80;8.63;;;;;;;12.21;88.95;99171.88;4846838;29;20483;-65
2024/03/31 04:40:57;;;;;;;23.00;8.93;;;;;;;12.13;89.96;99172.34;4844513;29;21027;-60
2024/03/31 04:43:24;;;;;;;22.00;6.77;;;;;;;12.13;90.61;99166.91;4842824;29;20455;-65
2024/03/31 04:46:00;;;;;;;15.37;8.33;;;;;;;12.25;91.39;99173.00;4844363;29;21013;-65
2024/03/31 04:48:27;;;;;;;13.67;7.87;;;;;;;12.46;89.29;99174.03;4840868;29;20429;-61
2024/03/31 04:50:55;;;;;;;23.30;10.50;;;;;;;12.43;89.80;99169.13;4848334;29;21039;-65
2024/03/31 04:53:26;;;;;;;23.23;7.90;;;;;;;12.21;90.31;99166.44;4847551;29;20451;-66
2024/03/31 04:55:53;;;;;;;25.73;9.40;;;;;;;12.19;90.12;99158.59;4865572;29;20444;-64
2024/03/31 04:58:20;;;;;;;20.33;7.93;;;;;;;12.11;89.79;99167.16;4859902;29;20431;-63
2024/03/31 05:00:48;;;;;;;15.87;9.37;;;;;;;12.02;90.04;99168.69;4829093;29;20480;-59
2024/03/31 05:03:15;;;;;;;35.07;8.80;;;;;;;11.99;90.29;99179.22;4839263;29;20480;-64
2024/03/31 05:05:44;;;;;;;43.63;11.43;;;;;;;12.19;90.73;99196.56;4830301;29;20435;-64
2024/03/31 05:08:11;;;;;;;18.23;8.77;;;;;;;12.46;89.48;99206.59;4843234;29;20434;-64
2024/03/31 05:10:40;;;;;;;16.43;9.93;;;;;;;12.45;89.00;99211.19;4845132;29;20478;-64
2024/03/31 05:13:07;;;;;;;17.63;9.10;;;;;;;12.27;89.08;99199.88;4863325;29;20448;-64
2024/03/31 05:15:35;;;;;;;26.37;9.20;;;;;;;12.31;89.07;99187.44;4839079;29;20457;-66
2024/03/31 05:18:02;;;;;;;18.23;7.10;;;;;;;12.26;88.92;99182.78;4841817;29;20415;-64
2024/03/31 05:20:29;;;;;;;17.17;7.50;;;;;;;12.26;88.98;99185.50;4855185;29;20460;-60
2024/03/31 05:22:57;;;;;;;19.83;7.33;;;;;;;12.29;90.22;99187.72;4841813;29;20465;-65
2024/03/31 05:25:24;;;;;;;8.00;6.30;;;;;;;12.34;90.12;99182.34;4834023;29;20449;-64
2024/03/31 05:27:53;;;;;;;32.73;9.63;;;;;;;12.28;90.05;99177.94;4858495;29;20493;-59
2024/03/31 05:30:22;;;;;;;20.23;7.77;;;;;;;12.36;90.22;99174.75;4832877;29;20496;-65
2024/03/31 05:32:49;;;;;;;13.33;7.20;;;;;;;12.42;91.27;99176.44;4850026;29;20516;-66
2024/03/31 05:35:26;;;;;;;14.13;7.80;;;;;;;12.55;89.89;99173.31;4843105;29;20996;-65
2024/03/31 05:37:54;;;;;;;18.50;8.83;;;;;;;12.54;89.86;99177.09;4839125;29;20468;-65
2024/03/31 05:40:22;;;;;;;10.53;6.80;;;;;;;12.51;90.01;99168.66;4849287;29;20474;-65
2024/03/31 05:42:49;;;;;;;15.17;6.73;;;;;;;12.48;91.26;99167.31;4848593;29;20476;-65
2024/03/31 05:45:20;;;;;;;12.47;7.50;;;;;;;12.46;91.88;99169.44;4856487;29;20816;-65
2024/03/31 05:47:46;;;;;;;14.70;6.40;;;;;;;12.77;89.21;99183.31;4845587;29;20596;-65
2024/03/31 05:50:14;;;;;;;18.07;9.10;;;;;;;12.74;89.05;99191.94;4841320;29;20493;-65
2024/03/31 05:52:42;;;;;;;21.93;7.00;;;;;;;12.57;89.76;99190.19;4859415;29;20448;-65
2024/03/31 05:55:10;;;;;;;14.03;8.23;;;;;;;12.50;90.60;99189.53;4841118;29;20965;-65
2024/03/31 05:57:37;;;;;;;21.97;10.30;;;;;;;12.41;90.33;99180.22;4834645;29;20445;-65
2024/03/31 06:00:08;;;;;;;19.10;9.87;;;;;;;12.37;90.33;99176.41;4844451;29;20901;-64
2024/03/31 06:02:41;;;;;;;23.43;6.23;;;;;;;12.30;90.32;99167.63;4845675;29;20467;-65
2024/03/31 06:05:09;;;;;;;15.90;7.23;;;;;;;12.33;91.20;99164.44;4846935;29;20545;-65
2024/03/31 06:07:36;;;;;;;28.30;7.37;;;;;;;12.73;91.72;99174.03;4854614;29;20481;-64
2024/03/31 06:10:04;;;;;;;26.67;11.10;;;;;;;12.85;89.00;99174.69;4851201;29;20430;-65
2024/03/31 06:12:32;;;;;;;9.40;6.37;;;;;;;12.83;89.61;99160.56;4839370;29;20449;-66
2024/03/31 06:15:00;;;;;;;22.33;8.03;;;;;;;12.73;89.21;99163.97;4852670;29;20462;-65
2024/03/31 06:17:28;;;;;;;30.07;7.83;;;;;;;12.72;89.25;99156.13;4865408;29;20444;-65
2024/03/31 06:19:58;;;;;;;17.50;8.00;;;;;;;12.73;89.48;99155.06;4868554;29;20492;-66
2024/03/31 06:22:24;;;;;;;26.13;7.60;;;;;;;12.90;88.31;99164.69;4865999;29;20469;-64
2024/03/31 06:24:52;;;;;;;30.97;7.70;;;;;;;12.94;88.55;99152.22;4853638;29;20456;-66
2024/03/31 06:27:19;;;;;;;19.40;8.57;;;;;;;13.19;88.62;99156.25;4846249;29;20440;-66
2024/03/31 06:29:49;;;;;;;11.30;7.40;;;;;;;13.55;85.99;99160.00;4845609;29;20479;-63
2024/03/31 06:32:17;;;;;;;20.90;8.90;;;;;;;13.62;85.82;99163.28;4849495;29;20451;-64
2024/03/31 06:34:46;;;;;;;16.17;6.60;;;;;;;13.59;84.93;99155.69;4853725;29;20411;-63
2024/03/31 06:37:14;;;;;;;39.37;8.13;;;;;;;13.59;84.46;99155.69;4849063;29;20456;-65
2024/03/31 06:39:42;;;;;;;11.77;6.60;;;;;;;13.59;83.98;99145.63;4848620;29;21041;-64
2024/03/31 06:42:10;;;;;;;21.80;8.83;;;;;;;13.79;83.45;99151.19;4848473;29;20451;-64
2024/03/31 06:44:37;;;;;;;21.17;10.97;;;;;;;13.92;82.24;99149.84;4845621;29;20419;-63
2024/03/31 06:47:05;;;;;;;19.07;8.57;;;;;;;13.91;82.53;99142.78;4842173;29;20476;-65
2024/03/31 06:49:32;;;;;;;37.83;9.70;;;;;;;14.05;82.16;99159.41;4846581;29;20459;-64
2024/03/31 06:52:00;;;;;;;50.97;13.03;;;;;;;13.98;81.66;99153.41;4860862;29;20483;-65
2024/03/31 06:54:29;;;;;;;10.67;8.57;;;;;;;13.92;81.18;99158.00;4847857;29;20467;-64
2024/03/31 06:56:56;;;;;;;19.90;8.60;;;;;;;13.78;81.75;99165.03;4847008;29;20426;-67
2024/03/31 06:59:23;;;;;;;18.37;9.37;;;;;;;13.78;81.20;99154.16;4826651;29;20460;-64
2024/03/31 07:01:52;;;;;;;18.33;9.60;;;;;;;13.86;80.70;99156.34;4844054;29;20438;-66
2024/03/31 07:04:18;;;;;;;18.83;9.60;;;;;;;14.01;80.42;99158.31;4851907;29;20435;-65
2024/03/31 07:06:46;;;;;;;34.10;9.97;;;;;;;14.19;79.27;99150.47;4830948;29;20519;-66
2024/03/31 07:09:14;;;;;;;34.60;8.90;;;;;;;14.21;78.68;99151.03;4860152;29;20494;-66
2024/03/31 07:11:43;;;;;;;26.53;7.97;;;;;;;14.26;77.89;99142.91;4840131;29;20502;-64
2024/03/31 07:14:10;;;;;;;16.67;9.37;;;;;;;14.20;78.18;99134.97;4850032;29;20969;-64
2024/03/31 07:16:39;;;;;;;13.93;7.87;;;;;;;14.07;78.78;99130.88;4839816;29;20452;-65
2024/03/31 07:19:05;;;;;;;20.17;9.60;;;;;;;14.17;80.04;99130.91;4840397;29;20448;-65
2024/03/31 07:21:35;;;;;;;20.30;9.13;;;;;;;14.23;78.98;99137.19;4858746;29;20476;-66
2024/03/31 07:24:01;;;;;;;10.13;7.47;;;;;;;14.37;78.45;99138.34;4847266;29;20834;-63
2024/03/31 07:26:29;;;;;;;30.67;9.17;;;;;;;14.42;77.66;99142.97;4848197;29;20656;-65
2024/03/31 07:28:57;;;;;;;20.80;9.83;;;;;;;14.62;76.91;99141.06;4828494;29;20447;-65
2024/03/31 07:31:26;;;;;;;23.93;11.17;;;;;;;14.69;76.57;99140.81;4835497;29;20468;-65
2024/03/31 07:33:53;;;;;;;28.37;8.20;;;;;;;14.50;77.07;99129.63;4869816;29;20482;-66
2024/03/31 07:36:21;;;;;;;7.43;6.63;;;;;;;14.61;77.06;99144.91;4846406;29;20415;-64
2024/03/31 07:38:48;;;;;;;20.40;8.77;;;;;;;14.85;77.36;99158.81;4841081;29;20815;-65
2024/03/31 07:41:16;;;;;;;34.77;11.37;;;;;;;15.18;74.67;99147.34;4856875;29;20520;-66
2024/03/31 07:43:43;;;;;;;35.10;12.10;;;;;;;15.05;74.64;99153.34;4855368;29;20487;-68
2024/03/31 07:46:12;;;;;;;25.53;8.60;;;;;;;15.05;75.22;99158.00;4852308;29;20416;-66
2024/03/31 07:48:39;;;;;;;18.83;8.10;;;;;;;15.22;73.80;99158.50;4843333;29;20916;-67
2024/03/31 07:51:07;;;;;;;20.90;10.83;;;;;;;15.30;72.70;99151.69;4860348;29;20464;-68
2024/03/31 07:53:34;;;;;;;25.63;8.00;;;;;;;14.98;73.42;99150.06;4837801;29;20442;-67
2024/03/31 07:56:02;;;;;;;15.50;6.90;;;;;;;14.86;74.54;99143.28;4855565;29;20465;-65
2024/03/31 07:58:30;;;;;;;51.93;11.47;;;;;;;15.17;73.44;99145.72;4858566;29;20949;-64
2024/03/31 08:00:56;;;;;;;21.93;9.80;;;;;;;15.36;72.80;99153.31;4855807;29;20438;-65
2024/03/31 08:03:25;;;;;;;12.67;6.77;;;;;;;15.29;72.70;99153.59;4855778;29;20879;-67
2024/03/31 08:05:52;;;;;;;16.27;7.60;;;;;;;15.46;72.14;99158.72;4857737;29;20422;-66
2024/03/31 08:08:21;;;;;;;25.93;12.23;;;;;;;15.54;71.21;99159.00;4857317;29;20448;-64
2024/03/31 08:10:47;;;;;;;12.63;8.20;;;;;;;15.78;71.05;99155.69;4851907;29;20431;-64
2024/03/31 08:13:15;;;;;;;26.43;9.83;;;;;;;16.05;69.08;99150.66;4858211;29;20440;-64
2024/03/31 08:15:43;;;;;;;22.93;9.40;;;;;;;15.98;68.99;99152.88;4840968;29;20463;-63
2024/03/31 08:18:11;;;;;;;17.00;9.13;;;;;;;16.13;67.98;99150.06;4840420;29;20448;-66
2024/03/31 08:20:39;;;;;;;26.87;10.17;;;;;;;16.29;67.57;99145.34;4860613;29;20555;-65
2024/03/31 08:23:07;;;;;;;18.73;10.53;;;;;;;16.43;66.38;99149.09;4852061;29;20447;-64
2024/03/31 08:25:37;;;;;;;28.97;9.40;;;;;;;16.38;66.02;99154.59;4860823;29;20460;-64
2024/03/31 08:28:05;;;;;;;36.40;12.13;;;;;;;16.52;66.63;99152.84;4842800;29;20418;-65
2024/03/31 08:30:32;;;;;;;17.43;8.43;;;;;;;16.66;65.14;99155.78;4841001;29;20833;-65
2024/03/31 08:33:00;;;;;;;33.37;13.50;;;;;;;16.60;65.12;99146.84;4855778;29;20436;-65
2024/03/31 08:35:26;;;;;;;25.80;8.13;;;;;;;16.63;65.39;99145.44;4854756;29;20403;-65
2024/03/31 08:37:56;;;;;;;26.20;9.50;;;;;;;16.82;63.91;99147.22;4842646;29;20422;-63
2024/03/31 08:40:26;;;;;;;14.43;7.07;;;;;;;16.99;63.33;99143.28;4859872;29;20456;-66
2024/03/31 08:43:00;;;;;;;20.53;8.13;;;;;;;17.02;62.93;99137.22;4856202;29;20446;-65
2024/03/31 08:45:29;;;;;;;18.73;10.50;;;;;;;17.12;63.29;99142.59;4842250;29;20476;-64
2024/03/31 08:47:59;;;;;;;16.57;9.80;;;;;;;17.37;61.10;99150.56;4843802;29;20820;-65
2024/03/31 08:50:26;;;;;;;17.40;9.63;;;;;;;17.28;62.12;99152.28;4841367;29;20438;-65
2024/03/31 08:52:56;;;;;;;27.87;10.90;;;;;;;17.37;61.47;99158.75;4854827;29;20411;-65
2024/03/31 08:55:23;;;;;;;23.13;8.97;;;;;;;17.58;60.64;99162.91;4859339;29;20549;-65
2024/03/31 08:57:51;;;;;;;29.17;8.27;;;;;;;17.47;60.66;99155.13;4838990;29;20431;-63
2024/03/31 09:00:18;;;;;;;28.97;9.83;;;;;;;17.92;59.37;99162.00;4852394;29;20459;-64
2024/03/31 09:02:45;;;;;;;20.33;10.67;;;;;;;18.18;58.76;99166.88;4859837;29;20468;-65
2024/03/31 09:05:12;;;;;;;12.50;7.07;;;;;;;18.40;57.12;99163.56;4847633;29;20420;-65
2024/03/31 09:07:41;;;;;;;19.13;9.27;;;;;;;18.67;55.52;99180.22;4849295;29;20444;-64
2024/03/31 09:10:10;;;;;;;22.33;9.00;;;;;;;18.56;57.16;99189.69;4860086;29;20451;-63
2024/03/31 09:12:39;;;;;;;19.47;9.27;;;;;;;18.65;56.43;99207.06;4843111;29;20460;-66
2024/03/31 09:15:08;;;;;;;15.07;5.70;;;;;;;19.03;54.89;99216.09;4858506;29;20541;-65
2024/03/31 09:17:36;;;;;;;18.43;9.97;;;;;;;18.60;55.97;99214.53;4857960;29;20418;-65
2024/03/31 09:20:04;;;;;;;11.60;8.27;;;;;;;19.10;53.96;99218.47;4862379;29;20525;-66
2024/03/31 09:22:32;;;;;;;15.53;8.40;;;;;;;19.45;54.11;99217.91;4855656;29;20451;-66
2024/03/31 09:24:58;;;;;;;19.53;9.03;;;;;;;19.39;52.99;99229.22;4842871;29;20436;-65
2024/03/31 09:27:28;;;;;;;16.83;8.40;;;;;;;18.86;54.72;99225.97;4855581;29;20446;-65
2024/03/31 09:29:58;;;;;;;17.90;7.20;;;;;;;18.53;56.95;99230.50;4858580;29;20435;-65
2024/03/31 09:32:27;;;;;;;12.47;8.17;;;;;;;18.47;57.79;99231.69;4841800;29;20411;-66
2024/03/31 09:34:54;;;;;;;15.23;9.70;;;;;;;18.85;57.39;99236.09;4840235;29;20444;-66
2024/03/31 09:37:23;;;;;;;33.97;9.03;;;;;;;18.66;57.72;99244.31;4854100;29;20432;-63
2024/03/31 09:39:50;;;;;;;19.80;10.33;;;;;;;18.85;56.94;99249.00;4844831;29;20860;-63
2024/03/31 09:42:18;;;;;;;15.40;8.10;;;;;;;19.09;56.74;99246.97;4840347;29;20411;-64
2024/03/31 09:44:46;;;;;;;22.03;9.20;;;;;;;19.12;55.92;99246.41;4843822;29;20431;-66
2024/03/31 09:47:19;;;;;;;12.73;8.47;;;;;;;18.77;57.20;99241.44;4842672;29;20577;-65
2024/03/31 09:49:59;;;;;;;16.67;9.13;;;;;;;18.83;57.06;99237.53;4855739;29;20817;-65
2024/03/31 09:52:42;;;;;;;19.47;8.30;;;;;;;18.74;57.28;99236.53;4833908;29;20783;-66
2024/03/31 09:55:13;;;;;;;33.17;7.50;;;;;;;18.73;57.25;99224.78;4839959;29;20434;-65
2024/03/31 09:57:44;;;;;;;20.60;6.80;;;;;;;18.86;57.61;99223.22;4855041;29;20418;-65
2024/03/31 10:00:15;;;;;;;22.80;9.83;;;;;;;19.16;56.32;99213.72;4842175;29;20452;-65
2024/03/31 10:02:50;;;;;;;25.53;7.80;;;;;;;19.19;56.29;99207.63;4853991;29;20469;-65
2024/03/31 10:05:24;;;;;;;28.60;9.77;;;;;;;19.15;56.43;99201.13;4852938;29;20909;-64
2024/03/31 10:07:53;;;;;;;25.80;9.20;;;;;;;19.01;56.79;99195.59;4836485;29;20483;-65
2024/03/31 10:10:22;;;;;;;29.60;10.03;;;;;;;18.90;57.33;99194.09;4839418;29;20475;-65
2024/03/31 10:12:52;;;;;;;17.37;8.77;;;;;;;19.03;57.62;99198.81;4852177;29;20475;-65
2024/03/31 10:15:21;;;;;;;15.80;10.23;;;;;;;19.38;57.25;99198.25;4836881;29;20521;-66
2024/03/31 10:17:51;;;;;;;15.73;8.67;;;;;;;19.24;56.98;99194.66;4853658;29;20807;-63
2024/03/31 10:20:19;;;;;;;22.83;11.50;;;;;;;19.31;56.89;99199.75;4846940;29;20465;-64
2024/03/31 10:22:47;;;;;;;10.20;7.40;;;;;;;19.09;56.75;99192.16;4842167;29;20874;-67
2024/03/31 10:25:14;;;;;;;16.17;8.70;;;;;;;18.80;57.51;99188.78;4858174;29;20411;-65
2024/03/31 10:27:43;;;;;;;14.03;6.40;;;;;;;18.82;57.94;99192.88;4855040;29;20514;-64
2024/03/31 10:30:10;;;;;;;10.50;7.43;;;;;;;19.02;56.78;99183.50;4838339;29;20439;-65
2024/03/31 10:32:40;;;;;;;19.23;6.83;;;;;;;19.05;56.57;99196.59;4856069;29;20423;-65
2024/03/31 10:35:07;;;;;;;12.93;6.27;;;;;;;19.33;56.61;99203.00;4862356;29;20427;-64
2024/03/31 10:37:35;;;;;;;16.80;7.90;;;;;;;19.19;56.53;99208.44;4856987;29;20859;-65
2024/03/31 10:40:05;;;;;;;10.23;7.30;;;;;;;19.87;56.04;99218.78;4857272;29;20460;-65
2024/03/31 10:42:34;;;;;;;8.60;7.70;;;;;;;19.77;55.51;99202.50;4845489;29;20529;-65
2024/03/31 10:45:02;;;;;;;17.50;7.07;;;;;;;19.66;55.15;99195.56;4848038;29;20827;-64
2024/03/31 10:47:30;;;;;;;14.10;6.33;;;;;;;19.58;55.79;99190.78;4863514;29;20844;-66
2024/03/31 10:49:59;;;;;;;29.83;7.87;;;;;;;19.84;55.86;99198.28;4853609;29;20460;-63
2024/03/31 10:52:31;;;;;;;24.73;7.60;;;;;;;20.21;55.49;99197.25;4852969;29;20499;-65
2024/03/31 10:55:00;;;;;;;16.00;7.97;;;;;;;20.15;55.60;99203.94;4847446;29;20861;-63
2024/03/31 10:57:35;;;;;;;9.47;6.93;;;;;;;19.93;57.42;99201.94;4862651;29;20407;-65
2024/03/31 11:00:05;;;;;;;15.40;7.57;;;;;;;20.10;57.46;99195.00;4840212;29;20463;-63
2024/03/31 11:02:34;;;;;;;22.73;6.83;;;;;;;20.01;56.85;99202.31;4847701;29;20567;-65
2024/03/31 11:05:04;;;;;;;18.67;8.00;;;;;;;19.98;57.17;99206.50;4860071;29;20772;-64
2024/03/31 11:07:39;;;;;;;18.60;8.10;;;;;;;20.03;57.41;99211.91;4845113;29;20415;-64
2024/03/31 11:10:08;;;;;;;17.43;7.20;;;;;;;20.27;58.01;99207.00;4862229;29;20964;-65
2024/03/31 11:12:37;;;;;;;11.83;6.30;;;;;;;20.72;55.79;99218.16;4847086;29;20433;-63
2024/03/31 11:15:07;;;;;;;16.23;7.13;;;;;;;20.71;55.77;99211.84;4845319;29;20457;-66
2024/03/31 11:17:35;;;;;;;7.60;6.03;;;;;;;20.23;57.72;99225.22;4858951;29;20513;-64
2024/03/31 11:20:05;;;;;;;11.03;5.77;;;;;;;20.17;58.42;99220.94;4843457;29;20431;-66
2024/03/31 11:22:36;;;;;;;8.37;5.93;;;;;;;20.35;58.50;99222.78;4844605;29;20455;-63
2024/03/31 11:25:04;;;;;;;17.37;6.53;;;;;;;20.06;58.70;99216.78;4852127;29;20443;-64
2024/03/31 11:27:33;;;;;;;7.37;5.87;;;;;;;20.27;58.55;99228.97;4841650;29;20929;-64
2024/03/31 11:30:01;;;;;;;13.67;5.13;;;;;;;20.33;58.51;99225.03;4855548;29;20440;-65